Time;durP1;ratioP1;P1;durP2;ratioP2;P2;SDS_P1;SDS_P2;PMS_P1;PMS_P2;Temp;Humidity;BMP_temperature;BMP_pressure;BME280_temperature;BME280_humidity;BME280_pressure;Samples;Min_cycle;Max_cycle;Signal;HPM_P1;HPM_P2
2023/06/04 00:01:55;;;;;;;;;;;;;;;16.33;35.50;100955.31;4941179;28;6987;-78
2023/06/04 00:04:23;;;;;;;;;;;;;;;16.22;36.49;100954.09;4988844;28;6795;-77
2023/06/04 00:06:49;;;;;;;;;;;;;;;16.14;36.20;100956.41;4987274;28;7257;-77
2023/06/04 00:09:15;;;;;;;;;;;;;;;16.05;36.27;100956.97;4975609;28;7001;-79
2023/06/04 00:11:41;;;;;;;;;;;;;;;15.97;36.67;100958.41;4985215;28;7252;-78
2023/06/04 00:14:06;;;;;;;;;;;;;;;15.87;36.68;100957.19;4986577;28;6844;-76
2023/06/04 00:16:35;;;;;;;;;;;;;;;15.79;37.00;100954.34;4940173;28;7142;-78
2023/06/04 00:19:01;;;;;;;;;;;;;;;15.70;37.36;100951.44;4958654;28;7224;-81
2023/06/04 00:21:27;;;;;;;;;;;;;;;15.61;37.45;100951.09;4969471;28;6994;-81
2023/06/04 00:23:52;;;;;;;;;;;;;;;15.52;37.35;100949.03;4987250;28;6985;-82
2023/06/04 00:26:18;;;;;;;;;;;;;;;15.43;37.49;100947.00;4957239;28;6784;-82
2023/06/04 00:28:44;;;;;;;;;;;;;;;15.35;37.65;100949.28;4962001;28;7841;-80
2023/06/04 00:31:10;;;;;;;;;;;;;;;15.28;38.34;100952.50;4972803;28;6945;-76
2023/06/04 00:33:36;;;;;;;;;;;;;;;15.21;37.98;100947.91;4977942;28;7330;-79
2023/06/04 00:36:02;;;;;;;;;;;;;;;15.12;38.68;100941.56;4958133;28;6787;-82
2023/06/04 00:38:27;;;;;;;;;;;;;;;15.06;38.55;100946.50;4979363;28;6950;-78
2023/06/04 00:40:53;;;;;;;;;;;;;;;14.98;38.27;100946.19;4950349;28;6987;-78
2023/06/04 00:43:19;;;;;;;;;;;;;;;14.91;38.87;100944.19;4940340;28;7551;-81
2023/06/04 00:45:45;;;;;;;;;;;;;;;14.84;38.80;100945.66;4976916;28;6948;-81
2023/06/04 00:48:11;;;;;;;;;;;;;;;14.78;39.19;100953.19;4941590;28;8533;-81
2023/06/04 00:50:38;;;;;;;;;;;;;;;14.72;39.46;100950.31;4959838;28;7011;-81
2023/06/04 00:53:05;;;;;;;;;;;;;;;14.68;39.76;100948.44;4957118;28;7294;-77
2023/06/04 00:55:31;;;;;;;;;;;;;;;14.64;39.14;100938.81;4954487;28;7346;-80
2023/06/04 00:57:57;;;;;;;;;;;;;;;14.61;39.49;100941.28;4981407;28;7236;-81
2023/06/04 01:00:23;;;;;;;;;;;;;;;14.56;39.60;100934.22;4940868;28;7193;-80
2023/06/04 01:02:53;;;;;;;;;;;;;;;14.55;39.85;100944.50;4967538;28;6817;-80
2023/06/04 01:05:48;;;;;;;;;;;;;;;14.53;40.15;100946.09;4978576;28;6988;-81
2023/06/04 01:08:15;;;;;;;;;;;;;;;14.48;39.61;100943.34;4957724;28;6796;-81
2023/06/04 01:10:52;;;;;;;;;;;;;;;14.45;40.63;100940.63;4990221;28;7675;-77
2023/06/04 01:13:17;;;;;;;;;;;;;;;14.40;40.04;100942.16;4986785;28;7650;-81
2023/06/04 01:15:43;;;;;;;;;;;;;;;14.37;40.27;100942.91;4958254;28;7911;-77
2023/06/04 01:18:09;;;;;;;;;;;;;;;14.34;41.16;100940.22;4979254;28;6990;-82
2023/06/04 01:20:46;;;;;;;;;;;;;;;14.33;40.58;100947.88;4990486;28;6809;-82
2023/06/04 01:23:33;;;;;;;;;;;;;;;14.30;40.23;100951.22;4975979;28;7335;-78
2023/06/04 01:26:04;;;;;;;;;;;;;;;14.29;41.05;100960.66;4965225;28;6816;-79
2023/06/04 01:28:33;;;;;;;;;;;;;;;14.30;41.11;100952.09;4977960;28;7258;-75
2023/06/04 01:31:01;;;;;;;;;;;;;;;14.32;41.29;100954.72;4975144;28;7005;-79
2023/06/04 01:33:28;;;;;;;;;;;;;;;14.34;40.94;100952.22;4958850;28;6812;-82
2023/06/04 01:35:54;;;;;;;;;;;;;;;14.35;40.53;100946.25;4975141;28;7273;-79
2023/06/04 01:38:20;;;;;;;;;;;;;;;14.36;40.54;100950.56;4957524;28;6813;-76
2023/06/04 01:40:47;;;;;;;;;;;;;;;14.36;41.04;100950.56;4976570;28;7217;-79
2023/06/04 01:43:12;;;;;;;;;;;;;;;14.34;40.37;100954.78;4991468;28;7283;-80
2023/06/04 01:45:38;;;;;;;;;;;;;;;14.27;41.09;100946.78;4960258;28;6804;-80
2023/06/04 01:48:06;;;;;;;;;;;;;;;14.23;40.45;100950.06;4968845;28;6870;-82
2023/06/04 01:50:32;;;;;;;;;;;;;;;14.20;41.00;100955.13;4990787;28;7058;-78
2023/06/04 01:52:58;;;;;;;;;;;;;;;14.18;41.26;100946.41;4973561;28;6964;-80
2023/06/04 01:55:28;;;;;;;;;;;;;;;14.14;41.78;100945.41;4989536;28;6953;-79
2023/06/04 01:57:54;;;;;;;;;;;;;;;14.10;41.51;100948.69;4947065;28;7187;-82
2023/06/04 02:00:20;;;;;;;;;;;;;;;14.08;41.52;100955.47;4942455;28;6837;-80
2023/06/04 02:02:47;;;;;;;;;;;;;;;14.10;41.03;100950.34;4957951;28;6780;-79
2023/06/04 02:05:14;;;;;;;;;;;;;;;14.16;41.01;100946.38;4986925;28;7206;-79
2023/06/04 02:07:44;;;;;;;;;;;;;;;14.20;41.77;100944.81;4953613;28;6804;-80
2023/06/04 02:10:16;;;;;;;;;;;;;;;14.25;41.42;100943.28;4991459;28;7281;-74
2023/06/04 02:13:03;;;;;;;;;;;;;;;14.27;41.36;100951.94;4973877;28;7035;-73
2023/06/04 02:15:31;;;;;;;;;;;;;;;14.29;41.54;100950.34;4989101;28;6865;-72
2023/06/04 02:18:02;;;;;;;;;;;;;;;14.33;41.19;100955.63;4957950;28;7216;-72
2023/06/04 02:20:28;;;;;;;;;;;;;;;14.34;40.87;100955.69;4957991;28;6804;-78
2023/06/04 02:22:55;;;;;;;;;;;;;;;14.34;40.33;100952.22;4958581;28;7064;-74
2023/06/04 02:25:25;;;;;;;;;;;;;;;14.29;40.67;100950.34;4973189;28;7098;-74
2023/06/04 02:27:51;;;;;;;;;;;;;;;14.25;40.61;100950.16;4961235;28;7186;-77
2023/06/04 02:30:17;;;;;;;;;;;;;;;14.18;40.82;100949.00;4956295;28;6784;-74
2023/06/04 02:32:44;;;;;;;;;;;;;;;14.15;41.14;100967.81;4988943;28;7160;-75
2023/06/04 02:35:10;;;;;;;;;;;;;;;14.16;41.39;100960.94;4990142;28;6820;-73
2023/06/04 02:37:36;;;;;;;;;;;;;;;14.21;40.81;100962.03;4981048;28;7087;-74
2023/06/04 02:40:02;;;;;;;;;;;;;;;14.27;41.20;100959.69;4989382;28;7422;-74
2023/06/04 02:42:27;;;;;;;;;;;;;;;14.33;41.39;100955.63;4989663;28;6888;-73
2023/06/04 02:44:53;;;;;;;;;;;;;;;14.36;40.51;100953.16;4976472;28;7057;-73
2023/06/04 02:47:19;;;;;;;;;;;;;;;14.39;41.15;100961.91;4965234;28;6958;-74
2023/06/04 02:49:46;;;;;;;;;;;;;;;14.40;41.22;100960.22;4983791;28;7027;-73
2023/06/04 02:52:12;;;;;;;;;;;;;;;14.39;41.49;100961.00;4987868;28;7031;-79
2023/06/04 02:54:38;;;;;;;;;;;;;;;14.37;41.50;100967.81;4983303;28;6796;-79
2023/06/04 02:57:03;;;;;;;;;;;;;;;14.36;40.75;100963.47;4986471;28;6787;-79
2023/06/04 02:59:29;;;;;;;;;;;;;;;14.34;41.40;100968.59;4973083;28;9494;-77
2023/06/04 03:01:55;;;;;;;;;;;;;;;14.35;40.89;100967.75;4957654;28;6942;-79
2023/06/04 03:04:20;;;;;;;;;;;;;;;14.35;41.32;100965.19;4964460;28;6820;-80
2023/06/04 03:06:47;;;;;;;;;;;;;;;14.37;40.75;100963.53;4989783;28;8132;-78
2023/06/04 03:09:13;;;;;;;;;;;;;;;14.38;41.17;100965.31;4939239;28;7196;-81
2023/06/04 03:11:39;;;;;;;;;;;;;;;14.38;41.25;100961.81;4957821;28;7209;-80
2023/06/04 03:14:05;;;;;;;;;;;;;;;14.36;41.15;100956.63;4986921;28;6787;-78
2023/06/04 03:16:30;;;;;;;;;;;;;;;14.34;41.28;100963.44;4959936;28;6783;-81
2023/06/04 03:18:56;;;;;;;;;;;;;;;14.30;40.39;100957.25;4959503;28;7253;-82
2023/06/04 03:21:24;;;;;;;;;;;;;;;14.25;41.16;100961.31;4960123;28;7293;-78
2023/06/04 03:23:50;;;;;;;;;;;;;;;14.21;40.86;100950.81;4983945;28;6832;-82
2023/06/04 03:26:16;;;;;;;;;;;;;;;14.19;40.96;100960.19;4944835;28;7120;-76
2023/06/04 03:28:42;;;;;;;;;;;;;;;14.19;41.45;100957.63;4955053;28;6843;-80
2023/06/04 03:31:07;;;;;;;;;;;;;;;14.19;41.36;100955.03;4972262;28;6768;-78
2023/06/04 03:33:33;;;;;;;;;;;;;;;14.20;41.35;100960.28;4987837;28;6816;-80
2023/06/04 03:35:59;;;;;;;;;;;;;;;14.22;40.81;100958.63;4959847;28;6940;-81
2023/06/04 03:38:27;;;;;;;;;;;;;;;14.25;40.68;100957.88;4984385;28;6991;-81
2023/06/04 03:40:53;;;;;;;;;;;;;;;14.27;40.75;100961.41;4944217;28;8537;-77
2023/06/04 03:43:20;;;;;;;;;;;;;;;14.28;40.80;100965.75;4959366;28;7167;-81
2023/06/04 03:45:45;;;;;;;;;;;;;;;14.26;40.75;100957.06;4974166;28;7734;-81
2023/06/04 03:48:11;;;;;;;;;;;;;;;14.26;41.33;100957.06;4983094;28;6776;-81
2023/06/04 03:50:37;;;;;;;;;;;;;;;14.25;41.47;100953.59;4990098;28;6792;-80
2023/06/04 03:53:04;;;;;;;;;;;;;;;14.23;41.26;100955.22;4947425;28;7013;-79
2023/06/04 03:55:32;;;;;;;;;;;;;;;14.24;41.42;100962.16;4988127;28;6800;-81
2023/06/04 03:57:58;;;;;;;;;;;;;;;14.26;41.84;100959.66;4986577;28;6804;-81
2023/06/04 04:00:24;;;;;;;;;;;;;;;14.28;41.38;100960.59;4988608;28;7007;-81
2023/06/04 04:02:50;;;;;;;;;;;;;;;14.33;41.02;100965.94;4968267;28;7142;-78
2023/06/04 04:05:15;;;;;;;;;;;;;;;14.39;41.07;100973.91;4956655;28;6795;-81
2023/06/04 04:07:41;;;;;;;;;;;;;;;14.43;41.28;100968.94;4968583;28;7021;-78
2023/06/04 04:10:07;;;;;;;;;;;;;;;14.47;41.83;100962.22;4989563;28;6783;-81
2023/06/04 04:12:33;;;;;;;;;;;;;;;14.52;41.98;100963.28;4979909;28;6996;-80
2023/06/04 04:14:58;;;;;;;;;;;;;;;14.58;41.32;100967.81;4967565;28;6776;-81
2023/06/04 04:17:25;;;;;;;;;;;;;;;14.71;42.21;100964.03;4959801;28;6970;-81
2023/06/04 04:19:51;;;;;;;;;;;;;;;14.94;42.40;100958.94;4987775;28;6792;-81
2023/06/04 04:22:17;;;;;;;;;;;;;;;15.23;42.67;100959.16;4940354;28;6951;-82
2023/06/04 04:24:44;;;;;;;;;;;;;;;15.55;42.45;100962.94;4963692;28;7040;-81
2023/06/04 04:27:13;;;;;;;;;;;;;;;15.88;41.74;100955.47;4955661;28;7273;-80
2023/06/04 04:29:39;;;;;;;;;;;;;;;16.20;41.39;100959.19;4975722;28;7066;-81
2023/06/04 04:32:11;;;;;;;;;;;;;;;16.56;40.85;100962.06;4971706;28;7324;-82
2023/06/04 04:34:43;;;;;;;;;;;;;;;16.89;40.59;100956.19;4983519;28;6872;-81
2023/06/04 04:37:09;;;;;;;;;;;;;;;17.20;40.37;100952.00;4982186;28;7366;-77
2023/06/04 04:39:38;;;;;;;;;;;;;;;17.48;39.63;100950.22;4946329;28;7448;-81
2023/06/04 04:42:04;;;;;;;;;;;;;;;17.74;39.46;100950.03;4987970;28;10346;-77
2023/06/04 04:44:30;;;;;;;;;;;;;;;18.00;39.31;100958.50;4961777;28;6799;-79
2023/06/04 04:46:56;;;;;;;;;;;;;;;18.22;39.00;100953.94;4962322;28;7326;-82
2023/06/04 04:49:22;;;;;;;;;;;;;;;18.44;38.45;100954.47;4945244;28;6868;-81
2023/06/04 04:51:47;;;;;;;;;;;;;;;18.64;38.57;100959.25;4956917;28;7338;-82
2023/06/04 04:54:13;;;;;;;;;;;;;;;18.83;37.99;100957.94;4986930;28;6791;-82
2023/06/04 04:56:39;;;;;;;;;;;;;;;19.00;37.40;100954.03;4959560;28;6773;-75
2023/06/04 04:59:05;;;;;;;;;;;;;;;19.19;37.80;100962.25;4982130;28;7289;-79
2023/06/04 05:01:30;;;;;;;;;;;;;;;19.35;37.62;100957.38;4943514;28;6974;-79
2023/06/04 05:03:56;;;;;;;;;;;;;;;19.50;36.78;100960.25;4973302;28;6955;-78
2023/06/04 05:06:22;;;;;;;;;;;;;;;19.62;37.11;100954.44;4972522;28;6788;-79
2023/06/04 05:08:47;;;;;;;;;;;;;;;19.77;36.89;100958.19;4974304;28;7142;-78
2023/06/04 05:11:13;;;;;;;;;;;;;;;19.93;36.88;100959.34;4953258;28;6784;-74
2023/06/04 05:13:41;;;;;;;;;;;;;;;20.07;36.45;100955.28;4974217;28;7794;-75
2023/06/04 05:16:07;;;;;;;;;;;;;;;20.24;36.51;100962.53;4989834;28;6808;-74
2023/06/04 05:18:44;;;;;;;;;;;;;;;20.40;36.26;100958.44;4946058;28;6984;-74
2023/06/04 05:21:12;;;;;;;;;;;;;;;20.56;36.06;100956.09;4950448;28;7061;-75
2023/06/04 05:23:39;;;;;;;;;;;;;;;20.67;35.75;100963.22;4956091;28;6814;-74
2023/06/04 05:26:05;;;;;;;;;;;;;;;20.77;35.78;100960.75;4972565;28;7653;-75
2023/06/04 05:28:34;;;;;;;;;;;;;;;20.83;35.27;100967.81;4981952;28;6990;-75
2023/06/04 05:31:01;;;;;;;;;;;;;;;20.88;35.49;100963.53;4992484;28;6812;-75
2023/06/04 05:33:27;;;;;;;;;;;;;;;20.94;35.67;100968.84;4975874;28;7042;-74
2023/06/04 05:35:57;;;;;;;;;;;;;;;21.03;35.34;100968.09;4964418;28;6792;-75
2023/06/04 05:38:30;;;;;;;;;;;;;;;21.13;35.33;100969.97;4974630;28;6994;-75
2023/06/04 05:40:56;;;;;;;;;;;;;;;21.25;35.24;100968.41;4963228;28;6920;-75
2023/06/04 05:43:22;;;;;;;;;;;;;;;21.35;35.37;100958.09;4970401;28;6780;-74
2023/06/04 05:45:48;;;;;;;;;;;;;;;21.51;35.22;100966.97;4968782;28;6927;-76
2023/06/04 05:48:14;;;;;;;;;;;;;;;21.66;34.99;100970.63;4976072;28;7697;-75
2023/06/04 05:50:40;;;;;;;;;;;;;;;21.75;35.07;100962.03;4963592;28;7150;-75
2023/06/04 05:53:05;;;;;;;;;;;;;;;21.77;34.71;100971.63;4961504;28;6976;-75
2023/06/04 05:55:31;;;;;;;;;;;;;;;21.74;34.65;100962.91;4992364;28;6772;-75
2023/06/04 05:57:57;;;;;;;;;;;;;;;21.61;34.44;100974.91;4960510;28;6768;-75
2023/06/04 06:00:23;;;;;;;;;;;;;;;21.41;34.04;100970.31;4992823;28;6776;-75
2023/06/04 06:02:50;;;;;;;;;;;;;;;21.19;34.10;100977.88;4988956;28;6832;-75
2023/06/04 06:05:18;;;;;;;;;;;;;;;20.98;34.10;100982.81;4965569;28;6833;-75
2023/06/04 06:07:44;;;;;;;;;;;;;;;20.77;34.22;100985.06;4959628;28;7019;-74
2023/06/04 06:10:10;;;;;;;;;;;;;;;20.62;34.75;100990.91;4993060;28;7283;-74
2023/06/04 06:12:36;;;;;;;;;;;;;;;20.45;34.75;100995.84;4996387;28;6983;-74
2023/06/04 06:15:01;;;;;;;;;;;;;;;20.29;34.79;100993.84;4983341;28;6947;-75
2023/06/04 06:17:27;;;;;;;;;;;;;;;20.09;34.82;100997.84;5001237;28;6760;-75
2023/06/04 06:19:53;;;;;;;;;;;;;;;19.92;35.31;101000.09;4947194;28;6950;-74
2023/06/04 06:22:18;;;;;;;;;;;;;;;19.80;35.41;100999.84;4968393;28;6792;-75
2023/06/04 06:24:45;;;;;;;;;;;;;;;19.72;35.31;100994.53;4987829;28;6942;-75
2023/06/04 06:27:10;;;;;;;;;;;;;;;19.65;35.60;101008.22;4967375;28;6780;-75
2023/06/04 06:29:36;;;;;;;;;;;;;;;19.62;36.15;101009.03;5001695;28;6987;-75
2023/06/04 06:32:03;;;;;;;;;;;;;;;19.64;36.41;101009.09;5000079;28;7012;-74
2023/06/04 06:34:28;;;;;;;;;;;;;;;19.65;36.31;101011.72;4997873;28;7074;-75
2023/06/04 06:36:54;;;;;;;;;;;;;;;19.71;36.77;101021.38;4950752;28;6962;-76
2023/06/04 06:39:20;;;;;;;;;;;;;;;19.75;36.92;101020.56;4964795;28;6780;-76
2023/06/04 06:41:45;;;;;;;;;;;;;;;19.80;36.67;101018.97;4981390;28;7148;-76
2023/06/04 06:44:11;;;;;;;;;;;;;;;19.86;36.78;101018.19;4956337;28;6780;-75
2023/06/04 06:46:37;;;;;;;;;;;;;;;19.91;36.84;101015.69;4976662;28;7113;-75
2023/06/04 06:49:02;;;;;;;;;;;;;;;19.95;36.73;101023.59;4993810;28;6768;-75
2023/06/04 06:51:28;;;;;;;;;;;;;;;20.01;36.56;101017.66;4943981;28;7210;-78
2023/06/04 06:53:54;;;;;;;;;;;;;;;20.07;36.55;101017.75;4978888;28;6815;-76
2023/06/04 06:56:19;;;;;;;;;;;;;;;20.21;37.21;101017.13;4981543;28;7295;-76
2023/06/04 06:58:45;;;;;;;;;;;;;;;20.45;36.98;101019.28;4946980;28;7178;-76
2023/06/04 07:01:12;;;;;;;;;;;;;;;20.78;37.25;101023.28;4969315;28;6776;-75
2023/06/04 07:03:39;;;;;;;;;;;;;;;21.15;37.02;101015.19;4959415;28;6796;-76
2023/06/04 07:06:06;;;;;;;;;;;;;;;21.56;36.83;101019.19;4962415;28;7061;-76
2023/06/04 07:08:32;;;;;;;;;;;;;;;22.03;36.33;101020.63;4962409;28;7313;-76
2023/06/04 07:10:59;;;;;;;;;;;;;;;22.51;35.59;101015.00;4989388;28;6795;-76
2023/06/04 07:13:25;;;;;;;;;;;;;;;22.93;35.23;101014.44;4981920;28;8594;-76
2023/06/04 07:15:50;;;;;;;;;;;;;;;23.39;34.89;101012.09;4987574;28;6816;-74
2023/06/04 07:18:16;;;;;;;;;;;;;;;23.83;33.40;101012.25;4960384;28;7202;-75
2023/06/04 07:20:42;;;;;;;;;;;;;;;24.23;32.75;100998.41;4957725;28;8887;-75
2023/06/04 07:23:07;;;;;;;;;;;;;;;24.59;32.54;101014.09;4990071;28;6764;-74
2023/06/04 07:25:33;;;;;;;;;;;;;;;24.88;31.18;101005.38;4986158;28;7159;-75
2023/06/04 07:27:59;;;;;;;;;;;;;;;25.15;31.36;101006.19;4988815;28;7218;-73
2023/06/04 07:30:25;;;;;;;;;;;;;;;25.38;30.59;101003.47;4952623;28;6863;-74
2023/06/04 07:32:51;;;;;;;;;;;;;;;25.60;30.47;100999.06;4975793;28;6792;-74
2023/06/04 07:35:17;;;;;;;;;;;;;;;25.79;30.18;100999.81;4990502;28;6772;-74
2023/06/04 07:37:45;;;;;;;;;;;;;;;26.02;29.91;101011.06;4959399;28;6834;-74
2023/06/04 07:40:11;;;;;;;;;;;;;;;26.20;29.70;101016.22;4988725;28;6823;-75
2023/06/04 07:42:37;;;;;;;;;;;;;;;26.35;29.33;101014.34;4991196;28;7312;-75
2023/06/04 07:45:03;;;;;;;;;;;;;;;26.55;29.33;101013.28;4976678;28;6958;-75
2023/06/04 07:47:29;;;;;;;;;;;;;;;26.73;29.12;101010.50;4959392;28;6796;-74
2023/06/04 07:49:54;;;;;;;;;;;;;;;27.00;28.70;101003.25;4960326;28;7545;-74
2023/06/04 07:52:20;;;;;;;;;;;;;;;27.22;28.12;101002.97;4979869;28;6954;-74
2023/06/04 07:54:46;;;;;;;;;;;;;;;27.31;27.66;101010.78;4977018;28;8620;-74
2023/06/04 07:57:11;;;;;;;;;;;;;;;27.40;27.54;101008.91;4987486;28;6763;-74
2023/06/04 07:59:37;;;;;;;;;;;;;;;27.56;27.91;101006.97;4960853;28;6800;-74
2023/06/04 08:02:03;;;;;;;;;;;;;;;27.70;26.94;101004.16;4961404;28;6813;-74
2023/06/04 08:04:28;;;;;;;;;;;;;;;27.83;26.95;101005.75;4990549;28;6955;-74
2023/06/04 08:06:55;;;;;;;;;;;;;;;27.96;26.42;101010.81;4989482;28;6959;-75
2023/06/04 08:09:20;;;;;;;;;;;;;;;28.06;26.76;101001.03;4963497;28;7123;-74
2023/06/04 08:11:46;;;;;;;;;;;;;;;28.18;26.19;101011.38;4964371;28;6828;-74
2023/06/04 08:14:12;;;;;;;;;;;;;;;28.40;26.46;101011.03;4959313;28;6784;-75
2023/06/04 08:16:40;;;;;;;;;;;;;;;28.64;25.58;101014.16;4990653;28;6995;-74
2023/06/04 08:19:07;;;;;;;;;;;;;;;28.87;25.70;101011.09;4965847;28;6796;-75
2023/06/04 08:21:33;;;;;;;;;;;;;;;29.06;25.33;101010.75;4962745;28;6789;-74
2023/06/04 08:23:59;;;;;;;;;;;;;;;29.17;24.73;101011.44;4984506;28;7692;-75
2023/06/04 08:26:26;;;;;;;;;;;;;;;29.28;24.77;101020.91;4990147;28;6784;-74
2023/06/04 08:28:51;;;;;;;;;;;;;;;29.37;24.93;101010.16;4958407;28;6885;-74
2023/06/04 08:31:17;;;;;;;;;;;;;;;29.42;24.87;101008.28;4963450;28;6942;-75
2023/06/04 08:33:46;;;;;;;;;;;;;;;29.51;24.16;101017.81;4985446;28;6963;-75
2023/06/04 08:36:11;;;;;;;;;;;;;;;29.59;24.51;101017.63;4983372;28;6992;-75
2023/06/04 08:38:37;;;;;;;;;;;;;;;29.73;24.14;101007.63;4957386;28;6980;-74
2023/06/04 08:41:26;;;;;;;;;;;;;;;29.92;23.77;101018.66;4959990;28;6776;-75
2023/06/04 08:43:56;;;;;;;;;;;;;;;30.09;23.92;101016.53;4991198;28;6816;-74
2023/06/04 08:46:25;;;;;;;;;;;;;;;30.33;23.52;101009.78;4953301;28;7198;-75
2023/06/04 08:48:53;;;;;;;;;;;;;;;30.62;23.69;101006.38;4954539;28;6946;-75
2023/06/04 08:51:19;;;;;;;;;;;;;;;30.89;23.30;101018.94;4987683;28;6815;-74
2023/06/04 08:53:49;;;;;;;;;;;;;;;31.15;22.99;101012.06;4951158;28;6828;-75
2023/06/04 08:56:17;;;;;;;;;;;;;;;31.31;22.77;101012.50;4993662;28;7056;-74
2023/06/04 08:58:44;;;;;;;;;;;;;;;31.43;22.75;101016.53;4958221;28;6810;-74
2023/06/04 09:01:11;;;;;;;;;;;;;;;31.56;22.26;101011.75;4978047;28;6996;-75
2023/06/04 09:03:37;;;;;;;;;;;;;;;31.70;22.18;101009.56;4947556;28;6827;-75
2023/06/04 09:06:04;;;;;;;;;;;;;;;31.72;21.92;101015.66;4959201;28;7020;-74
2023/06/04 09:08:37;;;;;;;;;;;;;;;31.90;22.00;101021.34;4968409;28;7014;-74
2023/06/04 09:11:13;;;;;;;;;;;;;;;32.10;21.47;101017.19;4978091;28;7125;-74
2023/06/04 09:13:43;;;;;;;;;;;;;;;32.12;21.60;101021.53;4990800;28;6799;-74
2023/06/04 09:16:08;;;;;;;;;;;;;;;32.08;21.43;101016.38;4964165;28;6938;-74
2023/06/04 09:18:34;;;;;;;;;;;;;;;32.12;21.67;101012.69;4994170;28;6772;-74
2023/06/04 09:21:05;;;;;;;;;;;;;;;32.20;21.11;101008.00;4970924;28;6903;-74
2023/06/04 09:23:34;;;;;;;;;;;;;;;32.16;21.12;101005.50;4966535;28;7062;-74
2023/06/04 09:26:08;;;;;;;;;;;;;;;32.03;21.06;101007.69;4964367;28;6803;-73
2023/06/04 09:28:34;;;;;;;;;;;;;;;32.07;21.37;101006.69;4978540;28;7151;-74
2023/06/04 09:31:02;;;;;;;;;;;;;;;32.39;21.32;101002.09;4963243;28;6764;-74
2023/06/04 09:33:28;;;;;;;;;;;;;;;32.76;20.78;101010.56;4981101;28;7286;-74
2023/06/04 09:35:56;;;;;;;;;;;;;;;33.20;20.43;100994.81;4995772;28;6788;-74
2023/06/04 09:38:22;;;;;;;;;;;;;;;33.72;20.04;100998.19;4997948;28;7091;-73
2023/06/04 09:40:49;;;;;;;;;;;;;;;34.02;19.75;100997.91;4971049;28;6788;-74
2023/06/04 09:43:23;;;;;;;;;;;;;;;34.21;19.11;101000.63;4992731;28;7151;-74
2023/06/04 09:45:49;;;;;;;;;;;;;;;34.34;19.01;101004.53;4980412;28;7435;-74
2023/06/04 09:48:21;;;;;;;;;;;;;;;34.36;18.72;101007.09;4992689;28;7139;-74
2023/06/04 09:50:48;;;;;;;;;;;;;;;34.41;18.59;101004.25;4992066;28;6852;-74
2023/06/04 09:53:22;;;;;;;;;;;;;;;34.61;18.49;101001.59;4965870;28;6993;-74
2023/06/04 09:56:06;;;;;;;;;;;;;;;34.79;18.10;101004.38;4950911;28;6891;-74
2023/06/04 09:58:33;;;;;;;;;;;;;;;34.68;18.11;100999.56;4979097;28;6927;-74
2023/06/04 10:01:02;;;;;;;;;;;;;;;34.45;18.07;101006.69;4992692;28;6808;-73
2023/06/04 10:03:36;;;;;;;;;;;;;;;34.08;17.98;101002.94;4964830;28;6812;-74
2023/06/04 10:06:06;;;;;;;;;;;;;;;33.94;18.27;101006.13;4958530;28;7158;-73
2023/06/04 10:08:34;;;;;;;;;;;;;;;34.01;18.26;101006.81;4992429;28;6910;-73
2023/06/04 10:11:02;;;;;;;;;;;;;;;34.21;17.88;101003.28;4952594;28;6983;-74
2023/06/04 10:13:37;;;;;;;;;;;;;;;34.35;17.91;101000.06;4992715;28;7001;-74
2023/06/04 10:16:03;;;;;;;;;;;;;;;34.57;17.97;101000.03;4988567;28;6807;-75
2023/06/04 10:18:30;;;;;;;;;;;;;;;34.76;17.58;101005.38;4976632;28;7112;-74
2023/06/04 10:20:57;;;;;;;;;;;;;;;34.89;18.21;101004.84;4993578;28;7066;-73
2023/06/04 10:23:24;;;;;;;;;;;;;;;34.83;17.49;101005.13;4963330;28;6796;-73
2023/06/04 10:25:52;;;;;;;;;;;;;;;34.65;17.32;101012.13;4965492;28;6784;-73
2023/06/04 10:28:23;;;;;;;;;;;;;;;34.49;17.39;100999.44;4950500;28;7002;-74
2023/06/04 10:30:50;;;;;;;;;;;;;;;34.44;17.58;100993.50;4990567;28;6816;-74
2023/06/04 10:33:23;;;;;;;;;;;;;;;34.62;17.92;100992.72;4955714;28;6961;-75
2023/06/04 10:35:53;;;;;;;;;;;;;;;34.90;17.56;100996.78;4991740;28;7867;-74
2023/06/04 10:38:20;;;;;;;;;;;;;;;34.99;17.77;100979.53;4977726;28;7056;-74
2023/06/04 10:40:46;;;;;;;;;;;;;;;35.07;17.45;100978.34;4956906;28;7006;-74
2023/06/04 10:43:15;;;;;;;;;;;;;;;35.35;17.50;100975.25;4992697;28;6796;-74
2023/06/04 10:45:42;;;;;;;;;;;;;;;35.58;17.60;100973.28;4952964;28;7295;-74
2023/06/04 10:48:11;;;;;;;;;;;;;;;35.75;17.15;100972.50;4987310;28;6795;-74
2023/06/04 10:50:52;;;;;;;;;;;;;;;35.92;16.60;100973.44;4963101;28;6804;-74
2023/06/04 10:53:19;;;;;;;;;;;;;;;35.82;16.74;100968.56;4940298;28;7178;-73
2023/06/04 10:55:47;;;;;;;;;;;;;;;35.75;17.05;100972.50;4984568;28;6795;-74
2023/06/04 10:58:13;;;;;;;;;;;;;;;35.90;17.01;100975.31;4966813;28;6922;-74
2023/06/04 11:00:49;;;;;;;;;;;;;;;36.07;16.29;100978.03;4959398;28;8095;-74
2023/06/04 11:03:15;;;;;;;;;;;;;;;36.26;16.53;100980.59;4956676;28;6808;-74
2023/06/04 11:05:47;;;;;;;;;;;;;;;36.39;16.59;100978.16;4958128;28;7194;-73
2023/06/04 11:08:15;;;;;;;;;;;;;;;36.11;15.83;100976.91;4960727;28;6812;-73
2023/06/04 11:10:44;;;;;;;;;;;;;;;35.63;15.58;100978.41;4962328;28;6931;-73
2023/06/04 11:13:10;;;;;;;;;;;;;;;35.22;16.25;100982.94;4946795;28;6872;-78
2023/06/04 11:15:44;;;;;;;;;;;;;;;35.18;16.15;100978.72;4987026;28;6995;-77
2023/06/04 11:18:15;;;;;;;;;;;;;;;35.48;16.01;100970.19;4952823;28;7674;-78
2023/06/04 11:20:44;;;;;;;;;;;;;;;35.83;15.66;100959.63;4958766;28;6789;-76
2023/06/04 11:23:13;;;;;;;;;;;;;;;36.24;16.23;100961.16;4956516;28;6808;-79
2023/06/04 11:25:39;;;;;;;;;;;;;;;36.60;15.51;100971.81;4977136;28;7323;-77
2023/06/04 11:28:05;;;;;;;;;;;;;;;36.54;15.72;100960.47;4974252;28;6788;-77
2023/06/04 11:30:30;;;;;;;;;;;;;;;36.21;15.60;100957.78;4990448;28;6820;-77
2023/06/04 11:33:06;;;;;;;;;;;;;;;36.14;15.35;100958.09;4958033;28;6958;-76
2023/06/04 11:35:41;;;;;;;;;;;;;;;36.30;15.48;100957.28;4989291;28;7230;-77
2023/06/04 11:38:07;;;;;;;;;;;;;;;36.40;15.25;100953.19;4973094;28;6808;-77
2023/06/04 11:40:33;;;;;;;;;;;;;;;36.15;15.25;100958.97;4989116;28;6783;-75
2023/06/04 11:42:58;;;;;;;;;;;;;;;35.72;15.00;100951.28;4957868;28;6946;-74
2023/06/04 11:45:25;;;;;;;;;;;;;;;35.63;15.57;100952.63;4959657;28;6784;-77
2023/06/04 11:47:56;;;;;;;;;;;;;;;35.77;15.41;100949.28;4971610;28;6982;-76
2023/06/04 11:50:27;;;;;;;;;;;;;;;36.04;15.43;100954.16;4953329;28;6963;-76
2023/06/04 11:52:53;;;;;;;;;;;;;;;36.06;15.04;100944.31;4973508;28;7489;-77
2023/06/04 11:55:20;;;;;;;;;;;;;;;36.05;15.06;100942.56;4959718;28;6936;-76
2023/06/04 11:57:48;;;;;;;;;;;;;;;35.91;14.88;100947.72;4990847;28;6867;-75
2023/06/04 12:00:17;;;;;;;;;;;;;;;35.52;15.49;100953.09;4953761;28;6796;-72
2023/06/04 12:02:54;;;;;;;;;;;;;;;35.24;15.49;100956.25;4957955;28;7094;-77
2023/06/04 12:05:23;;;;;;;;;;;;;;;35.21;16.13;100951.91;4956998;28;6859;-77
2023/06/04 12:07:50;;;;;;;;;;;;;;;35.37;15.80;100954.72;4973366;28;7170;-77
2023/06/04 12:10:18;;;;;;;;;;;;;;;35.37;15.83;100951.19;4953314;28;6872;-78
2023/06/04 12:12:44;;;;;;;;;;;;;;;35.26;15.78;100949.91;4973847;28;6992;-78
2023/06/04 12:15:18;;;;;;;;;;;;;;;35.12;15.84;100945.25;4955592;28;6975;-73
2023/06/04 12:17:54;;;;;;;;;;;;;;;35.02;15.81;100942.09;4956876;28;6970;-77
2023/06/04 12:20:34;;;;;;;;;;;;;;;35.02;15.70;100936.78;4972720;28;6848;-76
2023/06/04 12:22:59;;;;;;;;;;;;;;;35.02;15.70;100934.13;4958132;28;8571;-75
2023/06/04 12:25:28;;;;;;;;;;;;;;;35.01;15.98;100940.38;4974857;28;6795;-76
2023/06/04 12:27:54;;;;;;;;;;;;;;;34.81;15.78;100941.28;4965927;28;6799;-76
2023/06/04 12:30:20;;;;;;;;;;;;;;;34.69;15.67;100937.41;4977727;28;7234;-76
2023/06/04 12:32:46;;;;;;;;;;;;;;;34.70;16.17;100939.13;4982439;28;6795;-74
2023/06/04 12:35:11;;;;;;;;;;;;;;;34.71;15.85;100932.00;4960213;28;9961;-77
2023/06/04 12:37:37;;;;;;;;;;;;;;;34.57;16.11;100946.81;4960272;28;6946;-73
2023/06/04 12:40:06;;;;;;;;;;;;;;;34.40;15.91;100949.31;4988707;28;6780;-77
2023/06/04 12:42:32;;;;;;;;;;;;;;;34.43;16.51;100939.41;4963210;28;6816;-77
2023/06/04 12:44:58;;;;;;;;;;;;;;;34.73;15.75;100933.66;4977894;28;6838;-77
2023/06/04 12:47:23;;;;;;;;;;;;;;;34.91;16.36;100931.09;4988907;28;6771;-74
2023/06/04 12:49:49;;;;;;;;;;;;;;;35.04;15.85;100942.03;4962874;28;7090;-76